createdAt,value
2019-02-22T00:03:07.821Z,49.87
2019-02-22T00:08:12.946Z,52.00
2019-02-22T00:13:18.644Z,50.63
2019-02-22T00:18:24.855Z,51.60
2019-02-22T00:23:30.460Z,50.87
2019-02-22T00:28:36.949Z,52.37
2019-02-22T00:33:42.917Z,49.43
2019-02-22T00:38:48.768Z,52.53
2019-02-22T00:43:54.889Z,53.77
2019-02-22T00:49:01.058Z,50.93
2019-02-22T00:54:07.917Z,53.73
2019-02-22T00:59:14.398Z,50.83
2019-02-22T01:04:20.832Z,47.40
2019-02-22T01:09:28.423Z,48.80
2019-02-22T01:14:36.519Z,46.90
2019-02-22T01:19:42.866Z,46.77
2019-02-22T01:24:49.081Z,46.90
2019-02-22T01:29:54.898Z,44.97
2019-02-22T01:35:00.373Z,47.30
2019-02-22T01:40:07.276Z,46.20
2019-02-22T01:45:13.130Z,45.30
2019-02-22T01:50:23.986Z,47.00
2019-02-22T01:55:29.994Z,48.23
2019-02-22T02:00:36.846Z,45.73
2019-02-22T02:05:43.237Z,51.03
2019-02-22T02:10:54.048Z,49.13
2019-02-22T02:15:57.560Z,52.07
2019-02-22T02:21:04.434Z,52.03
2019-02-22T02:26:09.708Z,51.83
2019-02-22T02:31:15.342Z,49.87
2019-02-22T02:36:21.546Z,53.07
2019-02-22T02:41:27.900Z,52.07
2019-02-22T02:46:34.636Z,53.53
2019-02-22T02:51:40.502Z,54.73
2019-02-22T02:56:47.282Z,50.87
2019-02-22T03:01:54.029Z,51.90
2019-02-22T03:07:13.416Z,49.47
2019-02-22T03:12:19.776Z,52.60
2019-02-22T03:17:26.197Z,51.30
2019-02-22T03:22:33.893Z,51.07
2019-02-22T03:27:39.833Z,49.50
2019-02-22T03:32:46.253Z,47.87
2019-02-22T03:37:53.555Z,49.93
2019-02-22T03:43:00.932Z,49.00
2019-02-22T03:48:07.357Z,48.90
2019-02-22T03:53:20.020Z,50.27
2019-02-22T03:58:25.925Z,51.27
2019-02-22T04:03:54.404Z,50.83
2019-02-22T04:09:02.380Z,51.03
2019-02-22T04:14:11.179Z,51.73
2019-02-22T04:19:40.171Z,52.60
2019-02-22T04:24:46.325Z,52.20
2019-02-22T04:29:52.756Z,48.80
2019-02-22T04:35:00.749Z,51.60
2019-02-22T04:40:06.748Z,49.77
2019-02-22T04:45:13.400Z,52.33
2019-02-22T04:50:19.385Z,51.03
2019-02-22T04:55:25.674Z,51.17
2019-02-22T05:00:32.899Z,47.60
2019-02-22T05:05:39.286Z,50.03
2019-02-22T05:10:44.936Z,47.53
2019-02-22T05:15:52.529Z,50.83
2019-02-22T05:20:59.244Z,46.40
2019-02-22T05:26:05.493Z,47.47
2019-02-22T05:31:10.708Z,45.50
2019-02-22T05:36:16.908Z,47.27
2019-02-22T05:41:24.083Z,47.47
2019-02-22T05:46:30.021Z,45.10
2019-02-22T05:51:35.904Z,45.63
2019-02-22T05:56:41.803Z,47.83
2019-02-22T06:01:47.288Z,45.43
2019-02-22T06:06:53.205Z,43.00
2019-02-22T06:11:58.777Z,43.70
2019-02-22T06:17:14.201Z,45.23
2019-02-22T06:22:14.078Z,45.77
2019-02-22T06:27:20.160Z,43.70
2019-02-22T06:32:27.204Z,41.30
2019-02-22T06:37:33.938Z,43.80
2019-02-22T06:42:45.816Z,44.67
2019-02-22T06:47:50.285Z,43.73
2019-02-22T06:52:57.654Z,46.20
2019-02-22T06:58:03.399Z,46.77
2019-02-22T07:03:10.136Z,44.97
2019-02-22T07:08:16.941Z,43.33
2019-02-22T07:13:24.702Z,42.20
2019-02-22T07:18:30.803Z,41.30
2019-02-22T07:23:37.588Z,42.90
2019-02-22T07:28:44.290Z,41.33
2019-02-22T07:33:49.813Z,41.07
2019-02-22T07:38:57.047Z,42.40
2019-02-22T07:44:03.121Z,43.00
2019-02-22T07:49:09.499Z,40.63
2019-02-22T07:54:15.852Z,42.57
2019-02-22T07:59:22.127Z,41.97
2019-02-22T08:04:29.265Z,43.10
2019-02-22T08:09:36.835Z,41.33
2019-02-22T08:14:43.670Z,40.27
2019-02-22T08:19:50.062Z,42.73
2019-02-22T08:24:56.175Z,36.03
2019-02-22T08:30:02.203Z,33.27
2019-02-22T08:35:10.161Z,32.97
2019-02-22T08:40:15.575Z,31.63
2019-02-22T08:45:23.108Z,31.57
2019-02-22T08:50:29.638Z,30.67
2019-02-22T08:55:36.594Z,30.00
2019-02-22T09:00:42.541Z,31.50
2019-02-22T09:05:50.084Z,30.00
2019-02-22T09:11:00.465Z,27.30
2019-02-22T09:16:01.942Z,27.93
2019-02-22T09:21:09.415Z,28.13
2019-02-22T09:26:14.873Z,28.00
2019-02-22T09:31:20.317Z,28.47
2019-02-22T09:36:26.634Z,26.97
2019-02-22T09:41:34.077Z,25.63
2019-02-22T09:46:41.505Z,24.50
2019-02-22T09:51:47.593Z,29.53
2019-02-22T09:56:54.097Z,25.73
2019-02-22T10:02:00.336Z,26.73
2019-02-22T10:07:06.569Z,27.50
2019-02-22T10:12:12.706Z,25.90
2019-02-22T10:17:19.674Z,27.63
2019-02-22T10:22:25.229Z,21.43
2019-02-22T10:27:37.432Z,22.53
2019-02-22T10:32:43.272Z,23.30
2019-02-22T10:37:49.260Z,15.30
2019-02-22T10:42:55.814Z,21.03
2019-02-22T10:48:03.658Z,13.80
2019-02-22T10:53:10.135Z,18.23
2019-02-22T10:58:17.693Z,13.77
2019-02-22T11:03:24.045Z,10.17
2019-02-22T11:08:29.634Z,12.13
2019-02-22T11:13:41.729Z,14.87
2019-02-22T11:18:47.733Z,12.10
2019-02-22T11:23:55.261Z,13.90
2019-02-22T11:29:01.496Z,12.47
2019-02-22T11:34:08.149Z,8.03
2019-02-22T11:39:15.084Z,8.70
2019-02-22T11:44:20.535Z,10.33
2019-02-22T11:49:26.947Z,11.47
2019-02-22T11:54:35.430Z,16.13
2019-02-22T11:59:41.412Z,16.80
2019-02-22T12:04:47.844Z,18.10
2019-02-22T12:09:53.811Z,18.07
2019-02-22T12:14:59.488Z,15.27
2019-02-22T12:20:06.324Z,15.13
2019-02-22T12:25:11.551Z,14.70
2019-02-22T12:30:18.093Z,15.33
2019-02-22T12:35:26.173Z,12.73
2019-02-22T12:40:32.095Z,15.00
2019-02-22T12:45:38.209Z,14.17
2019-02-22T12:50:47.144Z,17.43
2019-02-22T12:55:52.661Z,18.20
2019-02-22T13:00:57.809Z,19.03
2019-02-22T13:06:05.878Z,18.23
2019-02-22T13:11:12.253Z,17.73
2019-02-22T13:16:17.999Z,17.60
2019-02-22T13:21:23.990Z,18.77
2019-02-22T13:26:30.809Z,18.47
2019-02-22T13:31:36.820Z,19.53
2019-02-22T13:36:43.181Z,19.97
2019-02-22T13:41:48.866Z,21.50
2019-02-22T13:46:54.810Z,19.80
2019-02-22T13:52:01.184Z,19.83
2019-02-22T13:57:06.982Z,20.63
2019-02-22T14:02:13.468Z,23.13
2019-02-22T14:07:19.296Z,25.80
2019-02-22T14:12:24.975Z,21.53
2019-02-22T14:17:30.464Z,20.40
2019-02-22T14:22:36.881Z,24.40
2019-02-22T14:27:42.558Z,21.53
2019-02-22T14:32:48.760Z,23.67
2019-02-22T14:37:55.698Z,21.17
2019-02-22T14:43:01.394Z,19.93
2019-02-22T14:48:07.844Z,20.27
2019-02-22T14:53:19.448Z,20.43
2019-02-22T14:58:20.788Z,20.63
2019-02-22T15:03:26.794Z,22.07
2019-02-22T15:08:33.017Z,20.87
2019-02-22T15:13:38.941Z,22.80
2019-02-22T15:18:45.334Z,21.33
2019-02-22T15:23:51.382Z,22.47
2019-02-22T15:28:57.820Z,23.70
2019-02-22T15:34:04.365Z,21.37
2019-02-22T15:39:10.818Z,21.50
2019-02-22T15:44:18.254Z,22.43
2019-02-22T15:49:24.853Z,21.67
2019-02-22T15:54:31.398Z,22.47
2019-02-22T15:59:37.442Z,20.67
2019-02-22T16:04:52.839Z,21.40
2019-02-22T16:09:59.432Z,22.90
2019-02-22T16:15:04.532Z,22.57
2019-02-22T16:20:10.798Z,25.40
2019-02-22T16:25:19.970Z,28.50
2019-02-22T16:30:28.978Z,29.87
2019-02-22T16:35:35.598Z,25.40
2019-02-22T16:40:48.358Z,26.57
2019-02-22T16:45:53.886Z,24.97
2019-02-22T16:51:01.577Z,25.83
2019-02-22T16:56:07.524Z,27.73
2019-02-22T17:01:14.050Z,28.47
2019-02-22T17:06:21.721Z,27.77
2019-02-22T17:11:30.299Z,26.83
2019-02-22T17:17:19.044Z,29.20
2019-02-22T17:22:25.302Z,32.17
2019-02-22T17:27:30.967Z,27.57
2019-02-22T17:32:36.670Z,28.90
2019-02-22T17:37:43.334Z,27.63
2019-02-22T17:42:49.331Z,31.23
2019-02-22T17:47:55.428Z,28.83
2019-02-22T17:53:01.749Z,26.87
2019-02-22T17:58:08.485Z,25.73
2019-02-22T18:03:24.046Z,25.77
2019-02-22T18:08:29.902Z,28.53
2019-02-22T18:13:37.779Z,27.53
2019-02-22T18:18:43.618Z,27.87
2019-02-22T18:23:50.471Z,27.93
2019-02-22T18:28:57.033Z,27.77
2019-02-22T18:34:02.471Z,28.90
2019-02-22T18:39:09.374Z,31.40
2019-02-22T18:44:15.528Z,28.03
2019-02-22T18:49:23.346Z,30.60
2019-02-22T18:54:30.088Z,29.37
2019-02-22T18:59:35.692Z,26.57
2019-02-22T19:04:41.658Z,26.37
2019-02-22T19:09:48.337Z,29.63
2019-02-22T19:14:54.749Z,33.57
2019-02-22T19:20:01.936Z,29.67
2019-02-22T19:25:07.107Z,28.87
2019-02-22T19:30:15.412Z,31.40
2019-02-22T19:35:21.882Z,28.83
2019-02-22T19:40:36.599Z,27.97
2019-02-22T19:45:43.869Z,30.17
2019-02-22T19:50:50.467Z,32.10
2019-02-22T19:55:56.817Z,27.40
2019-02-22T20:01:03.793Z,23.77
2019-02-22T20:06:09.767Z,26.43
2019-02-22T20:11:18.245Z,22.87
2019-02-22T20:16:24.482Z,22.57
2019-02-22T20:21:30.972Z,20.30
2019-02-22T20:26:37.186Z,21.67
2019-02-22T20:31:43.296Z,25.27
2019-02-22T20:36:51.721Z,21.37
2019-02-22T20:41:58.551Z,22.47
2019-02-22T20:47:04.712Z,18.67
2019-02-22T20:52:12.153Z,20.67
2019-02-22T20:57:19.708Z,18.17
2019-02-22T21:02:24.763Z,17.37
2019-02-22T21:07:30.779Z,19.50
2019-02-22T21:12:37.738Z,15.83
2019-02-22T21:17:45.553Z,20.20
2019-02-22T21:22:52.021Z,16.43
2019-02-22T21:27:57.694Z,16.23
2019-02-22T21:33:05.461Z,18.47
2019-02-22T21:38:12.028Z,16.73
2019-02-22T21:43:17.978Z,21.53
2019-02-22T21:48:27.801Z,20.23
2019-02-22T21:53:32.626Z,18.17
2019-02-22T21:58:41.178Z,21.37
2019-02-22T22:03:48.216Z,18.30
2019-02-22T22:08:55.483Z,21.83
2019-02-22T22:14:13.753Z,21.23
2019-02-22T22:19:20.169Z,21.93
2019-02-22T22:24:27.581Z,21.73
2019-02-22T22:29:34.020Z,23.57
2019-02-22T22:34:40.985Z,23.13
2019-02-22T22:39:47.222Z,21.13
2019-02-22T22:44:53.575Z,23.37
2019-02-22T22:49:59.516Z,21.87
2019-02-22T22:55:06.085Z,23.30
2019-02-22T23:00:35.840Z,24.00
2019-02-22T23:05:42.484Z,21.57
2019-02-22T23:10:49.668Z,27.93
2019-02-22T23:15:57.090Z,21.33
2019-02-22T23:21:03.425Z,21.50
2019-02-22T23:26:10.069Z,22.67
2019-02-22T23:31:17.407Z,22.13
2019-02-22T23:36:23.518Z,21.10
2019-02-22T23:41:31.788Z,23.23
2019-02-22T23:46:38.286Z,23.87
2019-02-22T23:51:45.553Z,23.23
2019-02-22T23:56:52.369Z,22.17
